createdAt,value
2019-03-04T00:00:22.207Z,150.10
2019-03-04T00:02:53.361Z,148.35
2019-03-04T00:05:22.366Z,148.70
2019-03-04T00:07:49.515Z,148.43
2019-03-04T00:10:16.587Z,148.80
2019-03-04T00:12:43.612Z,150.85
2019-03-04T00:15:10.701Z,148.47
2019-03-04T00:17:37.987Z,148.90
2019-03-04T00:20:05.033Z,148.90
2019-03-04T00:22:32.081Z,148.22
2019-03-04T00:24:59.144Z,149.02
2019-03-04T00:27:26.213Z,147.90
2019-03-04T00:29:53.327Z,148.70
2019-03-04T00:32:20.611Z,148.87
2019-03-04T00:34:47.779Z,150.65
2019-03-04T00:37:15.011Z,151.00
2019-03-04T00:39:43.312Z,149.77
2019-03-04T00:42:11.471Z,150.20
2019-03-04T00:44:38.537Z,149.62
2019-03-04T00:47:05.618Z,152.95
2019-03-04T00:49:32.652Z,148.65
2019-03-04T00:51:59.718Z,149.53
2019-03-04T00:54:26.784Z,150.68
2019-03-04T00:56:53.805Z,152.68
2019-03-04T00:59:20.853Z,151.05
2019-03-04T01:01:47.944Z,151.78
2019-03-04T01:04:15.017Z,150.62
2019-03-04T01:06:42.060Z,149.38
2019-03-04T01:09:11.867Z,150.10
2019-03-04T01:11:38.909Z,150.75
2019-03-04T01:14:07.030Z,150.15
2019-03-04T01:16:34.609Z,151.45
2019-03-04T01:19:01.697Z,150.82
2019-03-04T01:23:58.746Z,148.97
2019-03-04T01:26:28.161Z,149.53
2019-03-04T01:28:55.218Z,148.72
2019-03-04T01:31:22.342Z,149.75
2019-03-04T01:33:49.459Z,149.35
2019-03-04T01:36:16.518Z,150.50
2019-03-04T01:38:43.560Z,151.02
2019-03-04T01:41:10.643Z,149.20
2019-03-04T01:43:37.663Z,150.03
2019-03-04T01:46:05.145Z,149.15
2019-03-04T01:48:32.228Z,148.13
2019-03-04T01:51:00.357Z,149.50
2019-03-04T01:53:27.401Z,149.57
2019-03-04T01:55:54.435Z,148.78
2019-03-04T01:58:21.442Z,151.15
2019-03-04T02:00:48.895Z,149.70
2019-03-04T02:03:15.935Z,149.75
2019-03-04T02:05:42.996Z,149.62
2019-03-04T02:08:10.410Z,150.07
2019-03-04T02:10:37.453Z,150.03
2019-03-04T02:13:04.529Z,150.35
2019-03-04T02:15:31.572Z,149.30
2019-03-04T02:17:59.808Z,149.30
2019-03-04T02:20:26.853Z,151.27
2019-03-04T02:22:54.534Z,149.40
2019-03-04T02:25:43.420Z,148.87
2019-03-04T02:28:10.470Z,150.53
2019-03-04T02:30:37.719Z,151.60
2019-03-04T02:33:04.773Z,149.40
2019-03-04T02:35:31.845Z,151.95
2019-03-04T02:37:59.348Z,150.12
2019-03-04T02:40:26.393Z,148.45
2019-03-04T02:42:53.521Z,150.35
2019-03-04T02:45:20.548Z,149.65
2019-03-04T02:47:47.606Z,150.18
2019-03-04T02:50:15.008Z,151.05
2019-03-04T02:52:42.426Z,150.07
2019-03-04T02:55:09.682Z,149.47
2019-03-04T02:57:36.772Z,151.42
2019-03-04T03:00:06.350Z,149.95
2019-03-04T03:02:34.520Z,150.12
2019-03-04T03:05:01.641Z,149.47
2019-03-04T03:07:29.458Z,149.53
2019-03-04T03:09:56.496Z,149.82
2019-03-04T03:12:23.574Z,150.53
2019-03-04T03:14:50.788Z,151.42
2019-03-04T03:17:17.848Z,151.27
2019-03-04T03:19:46.685Z,151.37
2019-03-04T03:22:13.719Z,151.68
2019-03-04T03:24:41.126Z,151.68
2019-03-04T03:27:08.140Z,153.12
2019-03-04T03:29:35.274Z,152.78
2019-03-04T03:32:02.660Z,150.10
2019-03-04T03:34:29.703Z,152.50
2019-03-04T03:36:56.724Z,151.60
2019-03-04T03:39:23.766Z,153.65
2019-03-04T03:41:50.828Z,152.57
2019-03-04T03:44:17.824Z,153.20
2019-03-04T03:46:45.167Z,152.32
2019-03-04T03:49:14.236Z,152.15
2019-03-04T03:51:41.240Z,152.93
2019-03-04T03:54:08.630Z,152.45
2019-03-04T03:56:35.690Z,151.53
2019-03-04T03:59:02.700Z,151.12
2019-03-04T04:01:30.117Z,151.15
2019-03-04T04:03:57.242Z,152.50
2019-03-04T04:06:24.247Z,152.82
2019-03-04T04:08:51.573Z,150.62
2019-03-04T04:11:18.625Z,151.05
2019-03-04T04:13:47.452Z,151.72
2019-03-04T04:16:14.485Z,150.32
2019-03-04T04:18:41.603Z,149.42
2019-03-04T04:21:09.785Z,148.95
2019-03-04T04:23:37.302Z,150.93
2019-03-04T04:26:19.884Z,151.32
2019-03-04T04:28:47.646Z,149.72
2019-03-04T04:31:15.130Z,150.50
2019-03-04T04:33:42.191Z,149.68
2019-03-04T04:36:09.220Z,149.75
2019-03-04T04:38:36.575Z,149.02
2019-03-04T04:41:03.633Z,149.45
2019-03-04T04:43:30.689Z,150.75
2019-03-04T04:45:57.733Z,149.42
2019-03-04T04:48:24.897Z,149.62
2019-03-04T04:50:51.966Z,149.25
2019-03-04T04:53:19.491Z,150.20
2019-03-04T04:55:47.771Z,149.38
2019-03-04T04:58:14.818Z,149.45
2019-03-04T05:00:41.855Z,149.42
2019-03-04T05:03:08.910Z,149.60
2019-03-04T05:05:35.967Z,151.22
2019-03-04T05:08:03.419Z,150.30
2019-03-04T05:10:30.509Z,151.57
2019-03-04T05:12:57.547Z,150.45
2019-03-04T05:15:25.061Z,150.15
2019-03-04T05:17:52.129Z,150.85
2019-03-04T05:20:20.964Z,149.50
2019-03-04T05:22:48.178Z,148.10
2019-03-04T05:25:15.299Z,149.77
2019-03-04T05:27:42.317Z,148.65
2019-03-04T05:30:12.759Z,150.32
2019-03-04T05:32:39.798Z,148.90
2019-03-04T05:35:07.146Z,148.68
2019-03-04T05:37:34.213Z,149.60
2019-03-04T05:40:01.260Z,149.68
2019-03-04T05:42:28.378Z,149.02
2019-03-04T05:44:55.890Z,149.40
2019-03-04T05:47:23.260Z,149.18
2019-03-04T05:49:50.363Z,148.62
2019-03-04T05:52:17.401Z,148.38
2019-03-04T05:54:44.462Z,148.95
2019-03-04T05:57:12.216Z,150.35
2019-03-04T05:59:39.828Z,151.00
2019-03-04T06:02:10.672Z,149.12
2019-03-04T06:04:40.762Z,149.62
2019-03-04T06:07:31.463Z,149.80
2019-03-04T06:09:58.473Z,149.20
2019-03-04T06:12:26.492Z,149.72
2019-03-04T06:14:53.706Z,149.25
2019-03-04T06:17:20.846Z,150.38
2019-03-04T06:19:47.865Z,151.25
2019-03-04T06:22:14.926Z,148.82
2019-03-04T06:24:43.342Z,151.32
2019-03-04T06:27:10.755Z,152.82
2019-03-04T06:29:37.869Z,149.05
2019-03-04T06:32:05.386Z,149.80
2019-03-04T06:34:32.675Z,152.22
2019-03-04T06:36:59.734Z,151.87
2019-03-04T06:39:26.770Z,151.47
2019-03-04T06:41:53.837Z,151.07
2019-03-04T06:44:20.890Z,150.90
2019-03-04T06:46:49.109Z,152.02
2019-03-04T06:49:16.118Z,150.53
2019-03-04T06:51:47.673Z,149.95
2019-03-04T06:54:34.222Z,149.15
2019-03-04T06:57:05.366Z,148.35
2019-03-04T07:00:00.357Z,148.50
2019-03-04T07:02:28.206Z,149.20
2019-03-04T07:05:26.039Z,148.80
2019-03-04T07:07:53.150Z,149.10
2019-03-04T07:10:22.391Z,147.65
2019-03-04T07:12:49.994Z,151.12
2019-03-04T07:15:17.257Z,147.87
2019-03-04T07:17:45.848Z,146.82
2019-03-04T07:20:13.332Z,148.22
2019-03-04T07:22:40.518Z,147.78
2019-03-04T07:25:07.891Z,147.95
2019-03-04T07:27:35.418Z,149.53
2019-03-04T07:30:03.140Z,149.25
2019-03-04T07:32:32.530Z,152.27
2019-03-04T07:34:59.586Z,149.30
2019-03-04T07:37:26.703Z,150.38
2019-03-04T07:39:53.737Z,150.25
2019-03-04T07:42:21.253Z,149.18
2019-03-04T07:44:48.335Z,149.87
2019-03-04T07:47:16.596Z,149.40
2019-03-04T07:49:48.457Z,151.68
2019-03-04T07:52:19.355Z,149.10
2019-03-04T07:54:46.802Z,150.22
2019-03-04T07:57:13.866Z,150.18
2019-03-04T08:01:06.444Z,150.47
2019-03-04T08:06:14.779Z,151.00
2019-03-04T08:09:15.132Z,152.38
2019-03-04T08:12:14.890Z,151.68
2019-03-04T08:14:42.053Z,152.60
2019-03-04T08:17:09.349Z,153.00
2019-03-04T08:19:38.566Z,150.00
2019-03-04T08:22:06.696Z,150.90
2019-03-04T08:24:34.241Z,151.53
2019-03-04T08:27:05.252Z,151.42
2019-03-04T08:29:39.328Z,152.53
2019-03-04T08:32:08.967Z,151.25
2019-03-04T08:34:36.127Z,150.62
2019-03-04T08:37:03.635Z,150.87
2019-03-04T08:39:32.411Z,152.17
2019-03-04T08:41:59.486Z,152.62
2019-03-04T08:44:31.162Z,149.12
2019-03-04T08:46:58.354Z,149.93
2019-03-04T08:49:25.506Z,148.70
2019-03-04T08:51:52.569Z,146.07
2019-03-04T08:54:19.753Z,147.82
2019-03-04T08:56:46.901Z,146.40
2019-03-04T08:59:13.955Z,143.32
2019-03-04T09:01:41.033Z,145.70
2019-03-04T09:04:08.158Z,145.22
2019-03-04T09:06:35.494Z,144.05
2019-03-04T09:09:26.837Z,147.28
2019-03-04T09:11:57.029Z,145.30
2019-03-04T09:14:24.166Z,145.77
2019-03-04T09:16:51.262Z,146.55
2019-03-04T09:19:18.614Z,146.47
2019-03-04T09:21:45.704Z,147.13
2019-03-04T09:24:14.484Z,146.00
2019-03-04T09:26:41.983Z,147.43
2019-03-04T09:29:11.552Z,145.35
2019-03-04T09:31:39.712Z,146.57
2019-03-04T09:34:07.973Z,146.37
2019-03-04T09:36:37.804Z,146.60
2019-03-04T09:39:05.671Z,147.37
2019-03-04T09:41:33.419Z,147.72
2019-03-04T09:44:00.541Z,148.62
2019-03-04T09:46:28.156Z,149.10
2019-03-04T09:48:55.443Z,148.82
2019-03-04T09:51:24.588Z,149.02
2019-03-04T09:53:51.556Z,149.82
2019-03-04T09:56:18.595Z,149.20
2019-03-04T09:58:45.664Z,147.93
2019-03-04T10:01:17.218Z,146.65
2019-03-04T10:04:29.268Z,148.47
2019-03-04T10:07:54.578Z,148.57
2019-03-04T10:11:02.306Z,146.90
2019-03-04T10:13:53.806Z,148.00
2019-03-04T10:16:39.769Z,148.02
2019-03-04T10:19:47.214Z,147.65
2019-03-04T10:22:27.324Z,146.75
2019-03-04T10:25:24.492Z,146.20
2019-03-04T10:28:14.694Z,147.40
2019-03-04T10:31:29.663Z,150.35
2019-03-04T10:34:47.530Z,149.47
2019-03-04T10:38:05.703Z,147.10
2019-03-04T10:40:57.912Z,146.77
2019-03-04T10:44:18.004Z,147.02
2019-03-04T10:47:01.463Z,148.68
2019-03-04T10:49:31.428Z,147.07
2019-03-04T10:51:58.609Z,148.15
2019-03-04T10:54:26.856Z,148.78
2019-03-04T10:56:54.057Z,149.10
2019-03-04T10:59:21.090Z,148.60
2019-03-04T11:01:50.030Z,148.47
2019-03-04T11:04:21.068Z,153.60
2019-03-04T11:06:49.583Z,150.20
2019-03-04T11:09:16.697Z,149.70
2019-03-04T11:11:44.211Z,150.12
2019-03-04T11:14:12.592Z,149.27
2019-03-04T11:16:39.699Z,149.77
2019-03-04T11:19:07.230Z,150.90
2019-03-04T11:21:34.357Z,148.47
2019-03-04T11:24:01.638Z,150.38
2019-03-04T11:26:29.190Z,149.32
2019-03-04T11:28:56.364Z,149.53
2019-03-04T11:31:24.691Z,147.47
2019-03-04T11:33:51.747Z,150.42
2019-03-04T11:36:20.217Z,148.38
2019-03-04T11:38:53.969Z,154.05
2019-03-04T11:41:22.054Z,150.62
2019-03-04T11:43:50.421Z,150.00
2019-03-04T11:47:21.131Z,149.10
2019-03-04T11:50:18.445Z,148.45
2019-03-04T11:52:48.950Z,153.70
2019-03-04T11:55:17.512Z,150.57
2019-03-04T11:57:44.670Z,149.32
2019-03-04T12:00:24.989Z,148.70
2019-03-04T12:02:52.600Z,151.47
2019-03-04T12:05:19.816Z,149.18
2019-03-04T12:07:47.212Z,148.70
2019-03-04T12:10:20.309Z,148.82
2019-03-04T12:12:48.173Z,148.25
2019-03-04T12:15:15.935Z,151.32
2019-03-04T12:17:43.518Z,149.62
2019-03-04T12:20:11.213Z,146.90
2019-03-04T12:22:38.554Z,149.12
2019-03-04T12:25:10.287Z,149.55
2019-03-04T12:27:37.379Z,147.15
2019-03-04T12:30:06.378Z,148.93
2019-03-04T12:32:34.848Z,150.12
2019-03-04T12:35:04.762Z,149.62
2019-03-04T12:37:32.070Z,150.95
2019-03-04T12:39:59.062Z,150.30
2019-03-04T12:42:26.237Z,152.40
2019-03-04T12:44:53.289Z,150.72
2019-03-04T12:47:20.858Z,151.37
2019-03-04T12:49:48.069Z,151.72
2019-03-04T12:52:15.242Z,155.60
2019-03-04T12:54:42.316Z,149.93
2019-03-04T12:57:09.388Z,151.93
2019-03-04T12:59:37.830Z,148.38
2019-03-04T13:02:06.140Z,151.78
2019-03-04T13:04:35.069Z,151.68
2019-03-04T13:07:02.103Z,149.65
2019-03-04T13:09:29.333Z,149.93
2019-03-04T13:11:56.460Z,148.22
2019-03-04T13:14:23.837Z,148.50
2019-03-04T13:16:52.697Z,147.85
2019-03-04T13:19:19.823Z,145.47
2019-03-04T13:21:46.903Z,145.57
2019-03-04T13:24:14.092Z,147.07
2019-03-04T13:26:41.339Z,145.77
2019-03-04T13:29:09.130Z,144.87
2019-03-04T13:31:36.187Z,147.62
2019-03-04T13:34:03.418Z,149.32
2019-03-04T13:36:30.465Z,147.95
2019-03-04T13:38:57.739Z,148.32
2019-03-04T13:41:25.117Z,146.13
2019-03-04T13:43:52.187Z,148.32
2019-03-04T13:46:19.268Z,148.38
2019-03-04T13:48:48.170Z,146.82
2019-03-04T13:51:15.904Z,147.70
2019-03-04T13:53:43.217Z,146.65
2019-03-04T13:56:10.530Z,145.10
2019-03-04T13:58:37.640Z,145.55
2019-03-04T14:01:05.883Z,146.95
2019-03-04T14:03:33.010Z,146.35
2019-03-04T14:06:00.086Z,145.30
2019-03-04T14:08:27.165Z,146.45
2019-03-04T14:10:56.254Z,147.00
2019-03-04T14:13:25.428Z,146.62
2019-03-04T14:15:52.568Z,145.72
2019-03-04T14:18:19.809Z,147.28
2019-03-04T14:20:47.178Z,147.10
2019-03-04T14:23:14.378Z,146.47
2019-03-04T14:25:41.431Z,148.35
2019-03-04T14:28:09.772Z,145.97
2019-03-04T14:30:36.821Z,146.90
2019-03-04T14:33:05.001Z,148.10
2019-03-04T14:35:32.645Z,147.95
2019-03-04T14:37:59.679Z,148.13
2019-03-04T14:40:27.190Z,147.13
2019-03-04T14:42:55.293Z,148.45
2019-03-04T14:45:22.905Z,147.37
2019-03-04T14:47:50.080Z,149.32
2019-03-04T14:50:22.251Z,146.43
2019-03-04T14:52:50.470Z,146.53
2019-03-04T14:55:18.190Z,149.00
2019-03-04T14:57:45.472Z,145.87
2019-03-04T15:00:24.411Z,147.32
2019-03-04T15:02:51.869Z,150.15
2019-03-04T15:05:19.088Z,149.00
2019-03-04T15:07:46.275Z,147.62
2019-03-04T15:10:13.626Z,144.05
2019-03-04T15:12:40.780Z,145.22
2019-03-04T15:15:08.506Z,145.47
2019-03-04T15:17:36.111Z,144.43
2019-03-04T15:20:09.299Z,142.72
2019-03-04T15:22:35.470Z,142.43
2019-03-04T15:25:04.411Z,143.45
2019-03-04T15:27:31.482Z,141.18
2019-03-04T15:29:58.629Z,143.15
2019-03-04T15:32:26.962Z,142.28
2019-03-04T15:34:54.595Z,141.05
2019-03-04T15:37:21.811Z,145.07
2019-03-04T15:39:49.017Z,144.82
2019-03-04T15:42:16.443Z,141.95
2019-03-04T15:44:43.540Z,143.82
2019-03-04T15:47:12.411Z,145.95
2019-03-04T15:49:39.458Z,145.80
2019-03-04T15:52:07.078Z,142.70
2019-03-04T15:54:34.263Z,141.80
2019-03-04T15:57:02.415Z,143.20
2019-03-04T15:59:29.731Z,144.20
2019-03-04T16:02:02.296Z,141.12
2019-03-04T16:04:29.637Z,141.43
2019-03-04T16:06:56.717Z,143.55
2019-03-04T16:09:24.937Z,140.92
2019-03-04T16:11:52.038Z,141.32
2019-03-04T16:14:19.524Z,142.10
2019-03-04T16:16:48.423Z,143.28
2019-03-04T16:19:15.533Z,141.05
2019-03-04T16:21:43.042Z,144.35
2019-03-04T16:24:10.102Z,143.50
2019-03-04T16:26:37.223Z,144.40
2019-03-04T16:29:04.301Z,141.77
2019-03-04T16:31:31.421Z,143.78
2019-03-04T16:33:58.559Z,142.20
2019-03-04T16:36:25.670Z,142.50
2019-03-04T16:38:52.857Z,143.02
2019-03-04T16:41:19.945Z,146.28
2019-03-04T16:43:47.057Z,142.07
2019-03-04T16:46:14.178Z,144.13
2019-03-04T16:48:41.826Z,144.25
2019-03-04T16:51:08.888Z,143.25
2019-03-04T16:53:35.980Z,144.20
2019-03-04T16:56:03.161Z,142.75
2019-03-04T16:58:30.228Z,144.17
2019-03-04T17:00:57.476Z,143.07
2019-03-04T17:03:25.048Z,143.78
2019-03-04T17:05:52.710Z,143.00
2019-03-04T17:12:03.522Z,144.97
2019-03-04T17:14:30.782Z,144.47
2019-03-04T17:16:58.914Z,143.47
2019-03-04T17:19:28.232Z,143.30
2019-03-04T17:21:55.509Z,142.70
2019-03-04T17:24:22.766Z,143.43
2019-03-04T17:26:49.889Z,143.85
2019-03-04T17:29:16.980Z,144.82
2019-03-04T17:31:44.282Z,146.00
2019-03-04T17:34:12.570Z,146.28
2019-03-04T17:36:47.740Z,144.13
2019-03-04T17:39:15.675Z,142.85
2019-03-04T17:41:43.242Z,141.43
2019-03-04T17:44:10.355Z,144.80
2019-03-04T17:46:39.238Z,143.87
2019-03-04T17:49:06.317Z,144.07
2019-03-04T17:51:33.480Z,143.45
2019-03-04T17:54:00.543Z,143.07
2019-03-04T17:56:27.613Z,141.73
2019-03-04T17:58:54.730Z,142.20
2019-03-04T18:01:22.298Z,142.53
2019-03-04T18:03:49.702Z,141.30
2019-03-04T18:06:16.971Z,142.25
2019-03-04T18:08:44.495Z,142.07
2019-03-04T18:11:11.674Z,144.77
2019-03-04T18:13:38.892Z,143.85
2019-03-04T18:16:06.312Z,143.78
2019-03-04T18:18:36.750Z,144.35
2019-03-04T18:21:05.681Z,142.60
2019-03-04T18:23:32.756Z,143.28
2019-03-04T18:26:08.220Z,141.30
2019-03-04T18:29:09.719Z,143.22
2019-03-04T18:32:05.689Z,144.37
2019-03-04T18:35:08.732Z,141.07
2019-03-04T18:38:14.819Z,140.05
2019-03-04T18:41:03.190Z,141.92
2019-03-04T18:43:52.476Z,142.07
2019-03-04T18:47:03.705Z,141.22
2019-03-04T18:49:30.955Z,140.95
2019-03-04T18:51:58.014Z,143.40
2019-03-04T18:54:25.360Z,142.13
2019-03-04T18:56:52.587Z,142.43
2019-03-04T18:59:19.755Z,142.40
2019-03-04T19:01:47.407Z,141.68
2019-03-04T19:04:14.561Z,141.77
2019-03-04T19:06:42.076Z,142.10
2019-03-04T19:09:09.434Z,143.15
2019-03-04T19:11:38.645Z,141.05
2019-03-04T19:14:06.026Z,141.80
2019-03-04T19:16:34.754Z,141.00
2019-03-04T19:19:04.757Z,142.05
2019-03-04T19:21:33.859Z,143.50
2019-03-04T19:24:01.078Z,143.75
2019-03-04T19:26:28.468Z,143.00
2019-03-04T19:28:55.679Z,143.90
2019-03-04T19:31:22.761Z,144.82
2019-03-04T19:33:51.480Z,144.60
2019-03-04T19:36:21.208Z,146.00
2019-03-04T19:38:48.398Z,145.32
2019-03-04T19:41:16.331Z,144.68
2019-03-04T19:43:43.473Z,145.60
2019-03-04T19:46:11.955Z,146.25
2019-03-04T19:48:39.401Z,145.00
2019-03-04T19:51:06.453Z,145.65
2019-03-04T19:53:33.674Z,145.40
2019-03-04T19:56:01.081Z,145.45
2019-03-04T19:58:28.664Z,146.20
2019-03-04T20:00:55.830Z,145.45
2019-03-04T20:03:24.260Z,144.68
2019-03-04T20:05:51.406Z,145.00
2019-03-04T20:08:19.899Z,144.95
2019-03-04T20:10:47.356Z,145.12
2019-03-04T20:13:14.988Z,144.30
2019-03-04T20:15:42.255Z,145.12
2019-03-04T20:18:09.558Z,144.82
2019-03-04T20:20:37.007Z,144.35
2019-03-04T20:23:04.164Z,145.47
2019-03-04T20:25:31.773Z,144.95
2019-03-04T20:27:58.950Z,146.72
2019-03-04T20:30:26.298Z,143.15
2019-03-04T20:32:53.655Z,143.43
2019-03-04T20:35:21.063Z,145.72
2019-03-04T20:37:49.749Z,141.70
2019-03-04T20:40:17.592Z,145.97
2019-03-04T20:42:45.248Z,144.20
2019-03-04T20:45:12.483Z,143.70
2019-03-04T20:47:39.930Z,143.85
2019-03-04T20:50:10.506Z,143.47
2019-03-04T20:52:37.725Z,143.32
2019-03-04T20:55:07.614Z,141.75
2019-03-04T20:57:38.324Z,143.10
2019-03-04T21:00:08.760Z,142.93
2019-03-04T21:02:36.397Z,144.43
2019-03-04T21:05:05.087Z,146.18
2019-03-04T21:07:32.660Z,143.05
2019-03-04T21:09:59.799Z,142.30
2019-03-04T21:12:27.018Z,141.28
2019-03-04T21:14:54.234Z,143.65
2019-03-04T21:17:21.345Z,143.87
2019-03-04T21:19:48.520Z,143.65
2019-03-04T21:22:17.670Z,144.80
2019-03-04T21:24:44.819Z,145.07
2019-03-04T21:27:12.301Z,143.85
2019-03-04T21:30:18.817Z,143.00
2019-03-04T21:33:10.596Z,142.50
2019-03-04T21:36:28.553Z,143.80
2019-03-04T21:38:57.171Z,145.47
2019-03-04T21:41:55.757Z,143.85
2019-03-04T21:45:00.115Z,144.68
2019-03-04T21:47:38.917Z,144.50
2019-03-04T21:50:08.296Z,143.28
2019-03-04T21:53:03.266Z,146.95
2019-03-04T21:55:41.716Z,143.57
2019-03-04T21:58:09.138Z,144.85
2019-03-04T22:00:41.207Z,145.10
2019-03-04T22:03:23.863Z,145.15
2019-03-04T22:05:51.037Z,146.53
2019-03-04T22:08:18.700Z,145.22
2019-03-04T22:10:46.171Z,146.53
2019-03-04T22:13:14.237Z,144.95
2019-03-04T22:15:41.423Z,145.60
2019-03-04T22:18:08.844Z,145.60
2019-03-04T22:20:36.058Z,146.10
2019-03-04T22:23:06.969Z,147.55
2019-03-04T22:25:34.039Z,148.80
2019-03-04T22:28:01.720Z,147.57
2019-03-04T22:30:29.070Z,145.95
2019-03-04T22:32:56.146Z,147.45
2019-03-04T22:35:24.343Z,146.07
2019-03-04T22:37:53.591Z,145.72
2019-03-04T22:40:20.889Z,146.95
2019-03-04T22:42:47.944Z,143.40
2019-03-04T22:45:16.291Z,145.55
2019-03-04T22:47:43.853Z,145.72
2019-03-04T22:53:32.195Z,143.17
2019-03-04T22:56:11.585Z,142.77
2019-03-04T22:58:44.894Z,145.60
2019-03-04T23:01:33.832Z,143.00
2019-03-04T23:04:39.129Z,144.62
2019-03-04T23:07:37.438Z,144.43
2019-03-04T23:10:46.000Z,143.05
2019-03-04T23:13:33.448Z,141.85
2019-03-04T23:16:04.255Z,143.60
2019-03-04T23:18:33.118Z,143.07
2019-03-04T23:21:08.680Z,142.40
2019-03-04T23:23:37.037Z,144.97
2019-03-04T23:26:04.356Z,144.80
2019-03-04T23:28:37.566Z,143.97
2019-03-04T23:31:07.624Z,144.68
2019-03-04T23:33:36.848Z,144.17
2019-03-04T23:36:08.782Z,145.85
2019-03-04T23:38:38.956Z,144.02
2019-03-04T23:41:09.968Z,143.68
2019-03-04T23:43:37.273Z,143.55
2019-03-04T23:46:06.344Z,144.10
2019-03-04T23:48:37.292Z,143.80
2019-03-04T23:51:19.564Z,144.60
2019-03-04T23:53:48.814Z,144.13
2019-03-04T23:56:17.398Z,142.90
2019-03-04T23:58:50.160Z,142.72
